sensor_id;sensor_type;location;lat;lon;timestamp;P1;durP1;ratioP1;P2;durP2;ratioP2
48859;SDS011;34679;51.436;-2.518;2024-03-02T00:13:06;7.82;;;1.90;;
48859;SDS011;34679;51.436;-2.518;2024-03-02T00:19:32;3.50;;;0.95;;
48859;SDS011;34679;51.436;-2.518;2024-03-02T04:07:00;0.98;;;0.30;;
48859;SDS011;34679;51.436;-2.518;2024-03-02T04:12:38;0.40;;;0.25;;
48859;SDS011;34679;51.436;-2.518;2024-03-02T04:17:50;1.95;;;0.45;;
48859;SDS011;34679;51.436;-2.518;2024-03-02T04:24:03;0.13;;;0.10;;
48859;SDS011;34679;51.436;-2.518;2024-03-02T04:30:00;0.35;;;0.15;;
48859;SDS011;34679;51.436;-2.518;2024-03-02T04:32:26;1.02;;;0.15;;
48859;SDS011;34679;51.436;-2.518;2024-03-02T04:34:52;1.65;;;0.15;;
48859;SDS011;34679;51.436;-2.518;2024-03-02T04:37:18;3.03;;;0.32;;
48859;SDS011;34679;51.436;-2.518;2024-03-02T04:39:46;1.45;;;0.38;;
48859;SDS011;34679;51.436;-2.518;2024-03-02T04:42:12;0.70;;;0.20;;
48859;SDS011;34679;51.436;-2.518;2024-03-02T04:44:37;0.93;;;0.25;;
48859;SDS011;34679;51.436;-2.518;2024-03-02T04:47:04;0.73;;;0.30;;
48859;SDS011;34679;51.436;-2.518;2024-03-02T04:49:30;0.20;;;0.20;;
48859;SDS011;34679;51.436;-2.518;2024-03-02T04:51:56;0.63;;;0.10;;
48859;SDS011;34679;51.436;-2.518;2024-03-02T04:54:22;0.63;;;0.20;;
48859;SDS011;34679;51.436;-2.518;2024-03-02T04:56:48;0.55;;;0.55;;
48859;SDS011;34679;51.436;-2.518;2024-03-02T04:59:16;0.20;;;0.10;;
48859;SDS011;34679;51.436;-2.518;2024-03-02T05:01:45;1.85;;;0.20;;
48859;SDS011;34679;51.436;-2.518;2024-03-02T05:04:12;1.35;;;0.30;;
48859;SDS011;34679;51.436;-2.518;2024-03-02T05:06:39;0.32;;;0.10;;
48859;SDS011;34679;51.436;-2.518;2024-03-02T05:09:08;0.98;;;0.22;;
48859;SDS011;34679;51.436;-2.518;2024-03-02T05:11:34;0.20;;;0.20;;
48859;SDS011;34679;51.436;-2.518;2024-03-02T05:14:04;0.22;;;0.20;;
48859;SDS011;34679;51.436;-2.518;2024-03-02T05:16:33;0.25;;;0.25;;
48859;SDS011;34679;51.436;-2.518;2024-03-02T05:19:03;0.57;;;0.22;;
48859;SDS011;34679;51.436;-2.518;2024-03-02T05:21:31;0.45;;;0.40;;
48859;SDS011;34679;51.436;-2.518;2024-03-02T05:23:57;1.63;;;0.30;;
48859;SDS011;34679;51.436;-2.518;2024-03-02T05:26:23;0.47;;;0.30;;
48859;SDS011;34679;51.436;-2.518;2024-03-02T05:28:49;2.60;;;0.30;;
48859;SDS011;34679;51.436;-2.518;2024-03-02T05:31:15;0.50;;;0.20;;
48859;SDS011;34679;51.436;-2.518;2024-03-02T05:33:41;2.63;;;0.30;;
48859;SDS011;34679;51.436;-2.518;2024-03-02T05:36:08;0.40;;;0.30;;
48859;SDS011;34679;51.436;-2.518;2024-03-02T05:38:35;0.20;;;0.20;;
48859;SDS011;34679;51.436;-2.518;2024-03-02T05:41:01;0.40;;;0.30;;
48859;SDS011;34679;51.436;-2.518;2024-03-02T05:43:27;0.28;;;0.20;;
48859;SDS011;34679;51.436;-2.518;2024-03-02T05:45:53;2.08;;;0.30;;
48859;SDS011;34679;51.436;-2.518;2024-03-02T05:48:19;2.40;;;0.30;;
48859;SDS011;34679;51.436;-2.518;2024-03-02T05:50:45;0.30;;;0.30;;
48859;SDS011;34679;51.436;-2.518;2024-03-02T05:53:11;1.02;;;0.52;;
48859;SDS011;34679;51.436;-2.518;2024-03-02T05:55:37;0.40;;;0.40;;
48859;SDS011;34679;51.436;-2.518;2024-03-02T05:58:03;0.75;;;0.63;;
48859;SDS011;34679;51.436;-2.518;2024-03-02T06:00:31;0.60;;;0.60;;
48859;SDS011;34679;51.436;-2.518;2024-03-02T06:02:58;0.65;;;0.60;;
48859;SDS011;34679;51.436;-2.518;2024-03-02T06:05:24;1.58;;;0.60;;
48859;SDS011;34679;51.436;-2.518;2024-03-02T06:07:50;1.27;;;0.90;;
48859;SDS011;34679;51.436;-2.518;2024-03-02T06:10:16;1.52;;;1.42;;
48859;SDS011;34679;51.436;-2.518;2024-03-02T06:12:42;2.55;;;1.83;;
48859;SDS011;34679;51.436;-2.518;2024-03-02T06:15:09;5.78;;;2.47;;
48859;SDS011;34679;51.436;-2.518;2024-03-02T06:17:36;2.40;;;2.20;;
48859;SDS011;34679;51.436;-2.518;2024-03-02T06:20:01;4.43;;;2.63;;
48859;SDS011;34679;51.436;-2.518;2024-03-02T06:22:27;6.22;;;2.20;;
48859;SDS011;34679;51.436;-2.518;2024-03-02T06:24:53;2.55;;;2.35;;
48859;SDS011;34679;51.436;-2.518;2024-03-02T06:27:19;8.27;;;2.70;;
48859;SDS011;34679;51.436;-2.518;2024-03-02T06:29:45;5.50;;;2.50;;
48859;SDS011;34679;51.436;-2.518;2024-03-02T06:32:10;3.25;;;2.15;;
48859;SDS011;34679;51.436;-2.518;2024-03-02T06:34:36;3.08;;;1.90;;
48859;SDS011;34679;51.436;-2.518;2024-03-02T06:37:02;4.10;;;1.77;;
48859;SDS011;34679;51.436;-2.518;2024-03-02T06:39:28;4.78;;;2.50;;
48859;SDS011;34679;51.436;-2.518;2024-03-02T06:41:54;3.28;;;2.75;;
48859;SDS011;34679;51.436;-2.518;2024-03-02T06:44:19;4.53;;;3.22;;
48859;SDS011;34679;51.436;-2.518;2024-03-02T06:46:46;3.50;;;3.05;;
48859;SDS011;34679;51.436;-2.518;2024-03-02T06:49:12;3.47;;;3.17;;
48859;SDS011;34679;51.436;-2.518;2024-03-02T06:51:37;4.28;;;2.83;;
48859;SDS011;34679;51.436;-2.518;2024-03-02T06:54:03;2.75;;;2.28;;
48859;SDS011;34679;51.436;-2.518;2024-03-02T06:56:29;2.58;;;2.38;;
48859;SDS011;34679;51.436;-2.518;2024-03-02T06:58:55;2.95;;;2.60;;
48859;SDS011;34679;51.436;-2.518;2024-03-02T07:01:22;3.35;;;1.92;;
48859;SDS011;34679;51.436;-2.518;2024-03-02T07:03:49;2.15;;;1.90;;
48859;SDS011;34679;51.436;-2.518;2024-03-02T07:06:15;4.10;;;2.22;;
48859;SDS011;34679;51.436;-2.518;2024-03-02T07:08:41;1.85;;;1.67;;
48859;SDS011;34679;51.436;-2.518;2024-03-02T07:11:06;2.53;;;2.10;;
48859;SDS011;34679;51.436;-2.518;2024-03-02T07:13:32;2.05;;;1.83;;
48859;SDS011;34679;51.436;-2.518;2024-03-02T07:15:58;2.10;;;1.88;;
48859;SDS011;34679;51.436;-2.518;2024-03-02T07:18:35;2.08;;;1.83;;
48859;SDS011;34679;51.436;-2.518;2024-03-02T07:21:10;4.95;;;1.70;;
48859;SDS011;34679;51.436;-2.518;2024-03-02T07:23:36;2.47;;;2.28;;
48859;SDS011;34679;51.436;-2.518;2024-03-02T07:26:02;2.85;;;2.50;;
48859;SDS011;34679;51.436;-2.518;2024-03-02T07:28:28;3.53;;;2.28;;
48859;SDS011;34679;51.436;-2.518;2024-03-02T07:30:58;2.95;;;2.67;;
48859;SDS011;34679;51.436;-2.518;2024-03-02T07:33:24;2.45;;;2.25;;
48859;SDS011;34679;51.436;-2.518;2024-03-02T07:35:51;2.35;;;2.15;;
48859;SDS011;34679;51.436;-2.518;2024-03-02T07:38:17;2.70;;;2.50;;
48859;SDS011;34679;51.436;-2.518;2024-03-02T07:40:43;2.20;;;2.10;;
48859;SDS011;34679;51.436;-2.518;2024-03-02T07:43:08;5.78;;;2.20;;
48859;SDS011;34679;51.436;-2.518;2024-03-02T07:45:34;2.30;;;2.10;;
48859;SDS011;34679;51.436;-2.518;2024-03-02T07:48:03;2.80;;;2.20;;
48859;SDS011;34679;51.436;-2.518;2024-03-02T07:50:32;3.20;;;2.03;;
48859;SDS011;34679;51.436;-2.518;2024-03-02T07:53:00;2.40;;;2.20;;
48859;SDS011;34679;51.436;-2.518;2024-03-02T07:55:26;2.05;;;1.95;;
48859;SDS011;34679;51.436;-2.518;2024-03-02T07:57:52;2.63;;;2.42;;
48859;SDS011;34679;51.436;-2.518;2024-03-02T08:00:18;2.42;;;2.22;;
48859;SDS011;34679;51.436;-2.518;2024-03-02T08:02:44;2.50;;;2.30;;
48859;SDS011;34679;51.436;-2.518;2024-03-02T08:05:11;2.17;;;2.08;;
48859;SDS011;34679;51.436;-2.518;2024-03-02T08:07:36;2.50;;;2.30;;
48859;SDS011;34679;51.436;-2.518;2024-03-02T08:10:03;4.30;;;3.00;;
48859;SDS011;34679;51.436;-2.518;2024-03-02T08:12:32;2.70;;;2.50;;
48859;SDS011;34679;51.436;-2.518;2024-03-02T08:14:57;3.03;;;2.50;;
48859;SDS011;34679;51.436;-2.518;2024-03-02T08:17:23;2.75;;;2.55;;
48859;SDS011;34679;51.436;-2.518;2024-03-02T08:19:49;2.78;;;2.38;;
48859;SDS011;34679;51.436;-2.518;2024-03-02T08:22:15;4.63;;;2.35;;
48859;SDS011;34679;51.436;-2.518;2024-03-02T08:24:40;2.10;;;1.80;;
48859;SDS011;34679;51.436;-2.518;2024-03-02T08:27:07;2.80;;;2.20;;
48859;SDS011;34679;51.436;-2.518;2024-03-02T08:29:34;2.75;;;2.50;;
48859;SDS011;34679;51.436;-2.518;2024-03-02T08:32:00;2.60;;;2.40;;
48859;SDS011;34679;51.436;-2.518;2024-03-02T08:34:26;4.22;;;2.45;;
48859;SDS011;34679;51.436;-2.518;2024-03-02T08:36:52;2.95;;;2.50;;
48859;SDS011;34679;51.436;-2.518;2024-03-02T08:39:20;2.33;;;2.13;;
48859;SDS011;34679;51.436;-2.518;2024-03-02T08:41:49;2.90;;;2.70;;
48859;SDS011;34679;51.436;-2.518;2024-03-02T08:44:18;3.28;;;2.15;;
48859;SDS011;34679;51.436;-2.518;2024-03-02T08:46:57;1.70;;;1.60;;
48859;SDS011;34679;51.436;-2.518;2024-03-02T08:49:31;3.45;;;2.28;;
48859;SDS011;34679;51.436;-2.518;2024-03-02T08:51:58;2.13;;;1.77;;
48859;SDS011;34679;51.436;-2.518;2024-03-02T08:57:01;1.77;;;1.67;;
48859;SDS011;34679;51.436;-2.518;2024-03-02T09:02:22;1.98;;;1.67;;
48859;SDS011;34679;51.436;-2.518;2024-03-02T09:04:49;2.05;;;1.83;;
48859;SDS011;34679;51.436;-2.518;2024-03-02T09:07:15;1.77;;;1.65;;
48859;SDS011;34679;51.436;-2.518;2024-03-02T09:09:44;1.40;;;1.30;;
48859;SDS011;34679;51.436;-2.518;2024-03-02T09:12:10;1.92;;;1.55;;
48859;SDS011;34679;51.436;-2.518;2024-03-02T09:14:38;1.67;;;1.58;;
48859;SDS011;34679;51.436;-2.518;2024-03-02T09:17:06;2.13;;;2.00;;
48859;SDS011;34679;51.436;-2.518;2024-03-02T09:19:37;1.77;;;1.67;;
48859;SDS011;34679;51.436;-2.518;2024-03-02T09:22:03;1.65;;;1.50;;
48859;SDS011;34679;51.436;-2.518;2024-03-02T09:24:30;3.15;;;1.45;;
48859;SDS011;34679;51.436;-2.518;2024-03-02T09:26:56;1.77;;;1.67;;
48859;SDS011;34679;51.436;-2.518;2024-03-02T09:29:22;1.65;;;1.55;;
48859;SDS011;34679;51.436;-2.518;2024-03-02T09:31:48;1.65;;;1.55;;
48859;SDS011;34679;51.436;-2.518;2024-03-02T09:34:22;7.68;;;1.55;;
48859;SDS011;34679;51.436;-2.518;2024-03-02T09:36:48;0.93;;;0.93;;
48859;SDS011;34679;51.436;-2.518;2024-03-02T09:39:16;1.10;;;1.00;;
48859;SDS011;34679;51.436;-2.518;2024-03-02T09:41:43;1.92;;;1.20;;
48859;SDS011;34679;51.436;-2.518;2024-03-02T09:44:12;0.95;;;0.80;;
48859;SDS011;34679;51.436;-2.518;2024-03-02T09:46:38;0.95;;;0.90;;
48859;SDS011;34679;51.436;-2.518;2024-03-02T09:49:04;0.82;;;0.82;;
48859;SDS011;34679;51.436;-2.518;2024-03-02T09:51:30;0.95;;;0.70;;
48859;SDS011;34679;51.436;-2.518;2024-03-02T09:53:56;0.40;;;0.40;;
48859;SDS011;34679;51.436;-2.518;2024-03-02T09:56:22;4.00;;;0.70;;
48859;SDS011;34679;51.436;-2.518;2024-03-02T09:58:48;0.70;;;0.70;;
48859;SDS011;34679;51.436;-2.518;2024-03-02T10:01:14;0.47;;;0.47;;
48859;SDS011;34679;51.436;-2.518;2024-03-02T10:03:40;0.50;;;0.50;;
48859;SDS011;34679;51.436;-2.518;2024-03-02T10:06:18;0.82;;;0.68;;
48859;SDS011;34679;51.436;-2.518;2024-03-02T10:08:44;0.60;;;0.60;;
48859;SDS011;34679;51.436;-2.518;2024-03-02T10:11:29;1.30;;;1.02;;
48859;SDS011;34679;51.436;-2.518;2024-03-02T10:16:39;0.80;;;0.80;;
48859;SDS011;34679;51.436;-2.518;2024-03-02T10:19:19;1.85;;;0.82;;
48859;SDS011;34679;51.436;-2.518;2024-03-02T10:21:52;1.27;;;0.90;;
48859;SDS011;34679;51.436;-2.518;2024-03-02T10:24:20;1.98;;;1.20;;
48859;SDS011;34679;51.436;-2.518;2024-03-02T10:26:47;3.17;;;1.17;;
48859;SDS011;34679;51.436;-2.518;2024-03-02T10:29:13;1.50;;;1.15;;
48859;SDS011;34679;51.436;-2.518;2024-03-02T10:31:40;1.60;;;1.23;;
48859;SDS011;34679;51.436;-2.518;2024-03-02T10:34:09;1.73;;;1.35;;
48859;SDS011;34679;51.436;-2.518;2024-03-02T10:36:36;1.83;;;1.00;;
48859;SDS011;34679;51.436;-2.518;2024-03-02T10:39:03;1.10;;;1.10;;
48859;SDS011;34679;51.436;-2.518;2024-03-02T10:41:35;1.50;;;1.05;;
48859;SDS011;34679;51.436;-2.518;2024-03-02T10:44:05;1.13;;;1.00;;
48859;SDS011;34679;51.436;-2.518;2024-03-02T10:46:32;1.00;;;0.95;;
48859;SDS011;34679;51.436;-2.518;2024-03-02T10:49:02;1.30;;;1.20;;
48859;SDS011;34679;51.436;-2.518;2024-03-02T10:51:32;1.33;;;1.20;;
48859;SDS011;34679;51.436;-2.518;2024-03-02T10:54:03;1.35;;;1.25;;
48859;SDS011;34679;51.436;-2.518;2024-03-02T10:56:42;1.30;;;1.20;;
48859;SDS011;34679;51.436;-2.518;2024-03-02T11:01:42;1.70;;;1.60;;
48859;SDS011;34679;51.436;-2.518;2024-03-02T11:04:12;1.38;;;1.27;;
48859;SDS011;34679;51.436;-2.518;2024-03-02T11:06:39;2.45;;;1.33;;
48859;SDS011;34679;51.436;-2.518;2024-03-02T11:09:13;2.28;;;1.50;;
48859;SDS011;34679;51.436;-2.518;2024-03-02T11:11:41;1.00;;;1.00;;
48859;SDS011;34679;51.436;-2.518;2024-03-02T11:14:13;0.90;;;0.90;;
48859;SDS011;34679;51.436;-2.518;2024-03-02T11:16:41;1.85;;;1.10;;
48859;SDS011;34679;51.436;-2.518;2024-03-02T11:19:10;2.20;;;1.02;;
48859;SDS011;34679;51.436;-2.518;2024-03-02T11:21:38;1.00;;;1.00;;
48859;SDS011;34679;51.436;-2.518;2024-03-02T11:24:47;1.90;;;1.00;;
48859;SDS011;34679;51.436;-2.518;2024-03-02T11:26:58;1.30;;;1.20;;
48859;SDS011;34679;51.436;-2.518;2024-03-02T11:32:06;1.13;;;1.02;;
48859;SDS011;34679;51.436;-2.518;2024-03-02T11:34:35;1.20;;;1.10;;
48859;SDS011;34679;51.436;-2.518;2024-03-02T11:37:04;1.20;;;1.05;;
48859;SDS011;34679;51.436;-2.518;2024-03-02T11:39:30;1.10;;;0.95;;
48859;SDS011;34679;51.436;-2.518;2024-03-02T11:41:57;0.60;;;0.60;;
48859;SDS011;34679;51.436;-2.518;2024-03-02T11:44:26;0.50;;;0.50;;
48859;SDS011;34679;51.436;-2.518;2024-03-02T11:46:58;0.57;;;0.57;;
48859;SDS011;34679;51.436;-2.518;2024-03-02T11:49:43;1.02;;;0.65;;
48859;SDS011;34679;51.436;-2.518;2024-03-02T11:52:12;0.77;;;0.68;;
48859;SDS011;34679;51.436;-2.518;2024-03-02T11:54:39;1.65;;;0.50;;
48859;SDS011;34679;51.436;-2.518;2024-03-02T11:57:11;0.63;;;0.63;;
48859;SDS011;34679;51.436;-2.518;2024-03-02T11:59:39;3.50;;;0.80;;
48859;SDS011;34679;51.436;-2.518;2024-03-02T12:02:06;0.75;;;0.75;;
48859;SDS011;34679;51.436;-2.518;2024-03-02T12:04:31;0.80;;;0.80;;
48859;SDS011;34679;51.436;-2.518;2024-03-02T12:06:58;1.48;;;1.00;;
48859;SDS011;34679;51.436;-2.518;2024-03-02T12:09:25;8.48;;;1.00;;
48859;SDS011;34679;51.436;-2.518;2024-03-02T12:12:01;3.63;;;1.00;;
48859;SDS011;34679;51.436;-2.518;2024-03-02T12:14:28;1.98;;;1.20;;
48859;SDS011;34679;51.436;-2.518;2024-03-02T12:16:58;2.53;;;1.27;;
48859;SDS011;34679;51.436;-2.518;2024-03-02T12:19:24;1.52;;;1.13;;
48859;SDS011;34679;51.436;-2.518;2024-03-02T12:21:51;2.05;;;1.17;;
48859;SDS011;34679;51.436;-2.518;2024-03-02T12:24:17;1.40;;;1.08;;
48859;SDS011;34679;51.436;-2.518;2024-03-02T12:26:43;1.17;;;1.02;;
48859;SDS011;34679;51.436;-2.518;2024-03-02T12:29:10;3.25;;;1.48;;
48859;SDS011;34679;51.436;-2.518;2024-03-02T12:31:36;2.38;;;1.42;;
48859;SDS011;34679;51.436;-2.518;2024-03-02T12:34:02;1.25;;;1.15;;
48859;SDS011;34679;51.436;-2.518;2024-03-02T12:36:29;1.30;;;1.20;;
48859;SDS011;34679;51.436;-2.518;2024-03-02T12:38:55;1.67;;;1.33;;
48859;SDS011;34679;51.436;-2.518;2024-03-02T12:41:20;1.48;;;1.33;;
48859;SDS011;34679;51.436;-2.518;2024-03-02T12:43:46;2.30;;;1.30;;
48859;SDS011;34679;51.436;-2.518;2024-03-02T12:46:13;1.65;;;1.50;;
48859;SDS011;34679;51.436;-2.518;2024-03-02T12:48:39;2.30;;;1.70;;
48859;SDS011;34679;51.436;-2.518;2024-03-02T12:51:08;2.55;;;1.90;;
48859;SDS011;34679;51.436;-2.518;2024-03-02T12:53:34;1.92;;;1.77;;
48859;SDS011;34679;51.436;-2.518;2024-03-02T12:55:59;2.20;;;1.95;;
48859;SDS011;34679;51.436;-2.518;2024-03-02T12:58:25;2.00;;;1.90;;
48859;SDS011;34679;51.436;-2.518;2024-03-02T13:01:05;2.15;;;2.05;;
48859;SDS011;34679;51.436;-2.518;2024-03-02T13:03:34;2.90;;;1.83;;
48859;SDS011;34679;51.436;-2.518;2024-03-02T13:06:01;2.13;;;1.77;;
48859;SDS011;34679;51.436;-2.518;2024-03-02T13:08:27;2.53;;;2.30;;
48859;SDS011;34679;51.436;-2.518;2024-03-02T13:10:53;1.52;;;1.38;;
48859;SDS011;34679;51.436;-2.518;2024-03-02T13:13:19;1.65;;;1.55;;
48859;SDS011;34679;51.436;-2.518;2024-03-02T13:15:45;6.15;;;2.10;;
48859;SDS011;34679;51.436;-2.518;2024-03-02T13:18:11;2.20;;;1.65;;
48859;SDS011;34679;51.436;-2.518;2024-03-02T13:20:37;2.85;;;1.67;;
48859;SDS011;34679;51.436;-2.518;2024-03-02T13:23:04;1.83;;;1.55;;
48859;SDS011;34679;51.436;-2.518;2024-03-02T13:25:29;2.25;;;1.70;;
48859;SDS011;34679;51.436;-2.518;2024-03-02T13:27:56;2.00;;;1.30;;
48859;SDS011;34679;51.436;-2.518;2024-03-02T13:30:23;2.53;;;1.25;;
48859;SDS011;34679;51.436;-2.518;2024-03-02T13:32:48;1.85;;;1.23;;
48859;SDS011;34679;51.436;-2.518;2024-03-02T13:35:14;1.90;;;1.35;;
48859;SDS011;34679;51.436;-2.518;2024-03-02T13:37:40;2.38;;;1.25;;
48859;SDS011;34679;51.436;-2.518;2024-03-02T13:40:06;3.60;;;1.35;;
48859;SDS011;34679;51.436;-2.518;2024-03-02T13:42:37;1.92;;;1.40;;
48859;SDS011;34679;51.436;-2.518;2024-03-02T13:45:04;3.45;;;1.35;;
48859;SDS011;34679;51.436;-2.518;2024-03-02T13:47:30;1.48;;;1.10;;
48859;SDS011;34679;51.436;-2.518;2024-03-02T13:49:56;2.42;;;1.20;;
48859;SDS011;34679;51.436;-2.518;2024-03-02T13:52:23;1.83;;;1.15;;
48859;SDS011;34679;51.436;-2.518;2024-03-02T13:54:51;1.10;;;0.98;;
48859;SDS011;34679;51.436;-2.518;2024-03-02T13:57:17;2.13;;;1.30;;
48859;SDS011;34679;51.436;-2.518;2024-03-02T13:59:45;3.75;;;1.20;;
48859;SDS011;34679;51.436;-2.518;2024-03-02T14:02:11;1.27;;;1.20;;
48859;SDS011;34679;51.436;-2.518;2024-03-02T14:04:37;1.20;;;0.95;;
48859;SDS011;34679;51.436;-2.518;2024-03-02T14:07:06;1.42;;;1.05;;
48859;SDS011;34679;51.436;-2.518;2024-03-02T14:09:32;1.35;;;0.93;;
48859;SDS011;34679;51.436;-2.518;2024-03-02T14:11:58;1.13;;;1.08;;
48859;SDS011;34679;51.436;-2.518;2024-03-02T14:14:27;1.33;;;0.95;;
48859;SDS011;34679;51.436;-2.518;2024-03-02T14:16:53;1.08;;;1.02;;
48859;SDS011;34679;51.436;-2.518;2024-03-02T14:19:20;0.55;;;0.55;;
48859;SDS011;34679;51.436;-2.518;2024-03-02T14:21:46;2.72;;;0.70;;
48859;SDS011;34679;51.436;-2.518;2024-03-02T14:24:12;4.10;;;0.70;;
48859;SDS011;34679;51.436;-2.518;2024-03-02T14:26:38;3.30;;;1.17;;
48859;SDS011;34679;51.436;-2.518;2024-03-02T14:29:04;0.95;;;0.60;;
48859;SDS011;34679;51.436;-2.518;2024-03-02T14:31:30;1.42;;;0.95;;
48859;SDS011;34679;51.436;-2.518;2024-03-02T14:33:56;1.10;;;0.77;;
48859;SDS011;34679;51.436;-2.518;2024-03-02T14:36:22;2.38;;;1.42;;
48859;SDS011;34679;51.436;-2.518;2024-03-02T14:38:48;1.40;;;1.10;;
48859;SDS011;34679;51.436;-2.518;2024-03-02T14:41:14;5.53;;;1.67;;
48859;SDS011;34679;51.436;-2.518;2024-03-02T14:43:40;2.33;;;0.98;;
48859;SDS011;34679;51.436;-2.518;2024-03-02T14:46:06;1.17;;;0.85;;
48859;SDS011;34679;51.436;-2.518;2024-03-02T14:48:35;2.65;;;1.00;;
48859;SDS011;34679;51.436;-2.518;2024-03-02T14:51:02;1.77;;;0.82;;
48859;SDS011;34679;51.436;-2.518;2024-03-02T14:53:28;1.38;;;0.73;;
48859;SDS011;34679;51.436;-2.518;2024-03-02T14:55:54;2.20;;;0.93;;
48859;SDS011;34679;51.436;-2.518;2024-03-02T14:58:20;1.90;;;0.90;;
48859;SDS011;34679;51.436;-2.518;2024-03-02T15:00:46;0.88;;;0.73;;
48859;SDS011;34679;51.436;-2.518;2024-03-02T15:03:12;1.52;;;0.75;;
48859;SDS011;34679;51.436;-2.518;2024-03-02T15:05:38;0.80;;;0.68;;
48859;SDS011;34679;51.436;-2.518;2024-03-02T15:08:05;1.00;;;0.60;;
48859;SDS011;34679;51.436;-2.518;2024-03-02T15:10:31;1.00;;;0.80;;
48859;SDS011;34679;51.436;-2.518;2024-03-02T15:12:57;2.72;;;1.42;;
48859;SDS011;34679;51.436;-2.518;2024-03-02T15:15:23;1.85;;;1.27;;
48859;SDS011;34679;51.436;-2.518;2024-03-02T15:17:49;1.27;;;0.95;;
48859;SDS011;34679;51.436;-2.518;2024-03-02T15:20:15;1.85;;;0.80;;
48859;SDS011;34679;51.436;-2.518;2024-03-02T15:22:41;0.95;;;0.55;;
48859;SDS011;34679;51.436;-2.518;2024-03-02T15:25:07;0.85;;;0.60;;
48859;SDS011;34679;51.436;-2.518;2024-03-02T15:27:41;1.85;;;0.70;;
48859;SDS011;34679;51.436;-2.518;2024-03-02T15:30:17;1.60;;;0.60;;
48859;SDS011;34679;51.436;-2.518;2024-03-02T15:32:43;0.68;;;0.60;;
48859;SDS011;34679;51.436;-2.518;2024-03-02T15:35:09;2.15;;;0.80;;
48859;SDS011;34679;51.436;-2.518;2024-03-02T15:37:35;1.70;;;0.90;;
48859;SDS011;34679;51.436;-2.518;2024-03-02T15:40:01;1.40;;;0.60;;
48859;SDS011;34679;51.436;-2.518;2024-03-02T15:42:34;1.45;;;0.85;;
48859;SDS011;34679;51.436;-2.518;2024-03-02T15:45:00;2.75;;;1.08;;
48859;SDS011;34679;51.436;-2.518;2024-03-02T15:47:26;1.35;;;0.95;;
48859;SDS011;34679;51.436;-2.518;2024-03-02T15:49:53;2.90;;;1.00;;
48859;SDS011;34679;51.436;-2.518;2024-03-02T15:52:18;1.42;;;1.08;;
48859;SDS011;34679;51.436;-2.518;2024-03-02T15:54:46;3.10;;;1.77;;
48859;SDS011;34679;51.436;-2.518;2024-03-02T15:57:12;2.53;;;1.35;;
48859;SDS011;34679;51.436;-2.518;2024-03-02T15:59:38;2.42;;;1.70;;
48859;SDS011;34679;51.436;-2.518;2024-03-02T16:02:04;4.28;;;2.67;;
48859;SDS011;34679;51.436;-2.518;2024-03-02T16:04:30;2.25;;;1.45;;
48859;SDS011;34679;51.436;-2.518;2024-03-02T16:06:56;2.88;;;1.15;;
48859;SDS011;34679;51.436;-2.518;2024-03-02T16:09:21;3.17;;;1.30;;
48859;SDS011;34679;51.436;-2.518;2024-03-02T16:11:47;5.22;;;1.50;;
48859;SDS011;34679;51.436;-2.518;2024-03-02T16:14:13;2.17;;;1.10;;
48859;SDS011;34679;51.436;-2.518;2024-03-02T16:16:39;6.47;;;1.58;;
48859;SDS011;34679;51.436;-2.518;2024-03-02T16:19:05;3.65;;;3.30;;
48859;SDS011;34679;51.436;-2.518;2024-03-02T16:21:31;4.70;;;2.63;;
48859;SDS011;34679;51.436;-2.518;2024-03-02T16:23:57;3.85;;;1.33;;
48859;SDS011;34679;51.436;-2.518;2024-03-02T16:26:25;1.58;;;1.17;;
48859;SDS011;34679;51.436;-2.518;2024-03-02T16:28:51;4.30;;;1.50;;
48859;SDS011;34679;51.436;-2.518;2024-03-02T16:31:19;3.88;;;1.70;;
48859;SDS011;34679;51.436;-2.518;2024-03-02T16:33:45;3.13;;;1.50;;
48859;SDS011;34679;51.436;-2.518;2024-03-02T16:36:11;3.83;;;1.95;;
48859;SDS011;34679;51.436;-2.518;2024-03-02T16:38:37;3.13;;;1.67;;
48859;SDS011;34679;51.436;-2.518;2024-03-02T16:41:03;2.80;;;1.85;;
48859;SDS011;34679;51.436;-2.518;2024-03-02T16:43:29;3.97;;;2.00;;
48859;SDS011;34679;51.436;-2.518;2024-03-02T16:45:55;3.75;;;2.28;;
48859;SDS011;34679;51.436;-2.518;2024-03-02T16:48:21;6.15;;;1.80;;
48859;SDS011;34679;51.436;-2.518;2024-03-02T16:50:47;7.85;;;2.78;;
48859;SDS011;34679;51.436;-2.518;2024-03-02T16:53:13;4.90;;;1.42;;
48859;SDS011;34679;51.436;-2.518;2024-03-02T16:55:43;7.15;;;1.77;;
48859;SDS011;34679;51.436;-2.518;2024-03-02T16:58:09;4.22;;;1.60;;
48859;SDS011;34679;51.436;-2.518;2024-03-02T17:00:35;2.88;;;1.38;;
48859;SDS011;34679;51.436;-2.518;2024-03-02T17:03:02;3.33;;;1.27;;
48859;SDS011;34679;51.436;-2.518;2024-03-02T17:05:29;3.72;;;1.40;;
48859;SDS011;34679;51.436;-2.518;2024-03-02T17:07:54;3.47;;;1.45;;
48859;SDS011;34679;51.436;-2.518;2024-03-02T17:10:23;7.30;;;1.30;;
48859;SDS011;34679;51.436;-2.518;2024-03-02T17:12:48;2.90;;;1.75;;
48859;SDS011;34679;51.436;-2.518;2024-03-02T17:15:14;2.67;;;1.80;;
48859;SDS011;34679;51.436;-2.518;2024-03-02T17:17:40;4.82;;;2.35;;
48859;SDS011;34679;51.436;-2.518;2024-03-02T17:20:06;3.25;;;1.48;;
48859;SDS011;34679;51.436;-2.518;2024-03-02T17:22:36;9.20;;;2.35;;
48859;SDS011;34679;51.436;-2.518;2024-03-02T17:25:02;3.03;;;2.03;;
48859;SDS011;34679;51.436;-2.518;2024-03-02T17:27:28;5.47;;;1.75;;
48859;SDS011;34679;51.436;-2.518;2024-03-02T17:29:56;7.85;;;2.13;;
48859;SDS011;34679;51.436;-2.518;2024-03-02T17:32:22;3.90;;;2.45;;
48859;SDS011;34679;51.436;-2.518;2024-03-02T17:34:48;4.00;;;3.03;;
48859;SDS011;34679;51.436;-2.518;2024-03-02T17:37:14;6.28;;;3.50;;
48859;SDS011;34679;51.436;-2.518;2024-03-02T17:39:39;3.75;;;2.28;;
48859;SDS011;34679;51.436;-2.518;2024-03-02T17:42:05;17.48;;;7.03;;
48859;SDS011;34679;51.436;-2.518;2024-03-02T17:44:31;32.33;;;13.18;;
48859;SDS011;34679;51.436;-2.518;2024-03-02T17:46:56;23.48;;;8.45;;
48859;SDS011;34679;51.436;-2.518;2024-03-02T17:49:22;8.27;;;3.47;;
48859;SDS011;34679;51.436;-2.518;2024-03-02T17:51:48;5.47;;;3.00;;
48859;SDS011;34679;51.436;-2.518;2024-03-02T17:54:13;6.40;;;2.90;;
48859;SDS011;34679;51.436;-2.518;2024-03-02T17:56:39;4.40;;;2.47;;
48859;SDS011;34679;51.436;-2.518;2024-03-02T17:59:05;6.72;;;2.58;;
48859;SDS011;34679;51.436;-2.518;2024-03-02T18:01:33;4.43;;;2.80;;
48859;SDS011;34679;51.436;-2.518;2024-03-02T18:04:00;9.77;;;2.60;;
48859;SDS011;34679;51.436;-2.518;2024-03-02T18:06:26;6.68;;;2.78;;
48859;SDS011;34679;51.436;-2.518;2024-03-02T18:08:52;4.82;;;2.92;;
48859;SDS011;34679;51.436;-2.518;2024-03-02T18:11:18;2.95;;;2.60;;
48859;SDS011;34679;51.436;-2.518;2024-03-02T18:13:45;8.68;;;3.47;;
48859;SDS011;34679;51.436;-2.518;2024-03-02T18:16:14;6.80;;;3.45;;
48859;SDS011;34679;51.436;-2.518;2024-03-02T18:18:40;6.15;;;3.28;;
48859;SDS011;34679;51.436;-2.518;2024-03-02T18:21:06;8.02;;;3.85;;
48859;SDS011;34679;51.436;-2.518;2024-03-02T18:23:32;7.75;;;3.90;;
48859;SDS011;34679;51.436;-2.518;2024-03-02T18:25:58;19.17;;;4.75;;
48859;SDS011;34679;51.436;-2.518;2024-03-02T18:28:23;6.35;;;3.20;;
48859;SDS011;34679;51.436;-2.518;2024-03-02T18:30:49;86.85;;;6.07;;
48859;SDS011;34679;51.436;-2.518;2024-03-02T18:33:15;7.18;;;4.88;;
48859;SDS011;34679;51.436;-2.518;2024-03-02T18:35:41;16.10;;;6.68;;
48859;SDS011;34679;51.436;-2.518;2024-03-02T18:38:07;12.13;;;6.38;;
48859;SDS011;34679;51.436;-2.518;2024-03-02T18:40:33;19.05;;;8.07;;
48859;SDS011;34679;51.436;-2.518;2024-03-02T18:42:58;80.25;;;10.95;;
48859;SDS011;34679;51.436;-2.518;2024-03-02T18:45:25;19.35;;;8.95;;
48859;SDS011;34679;51.436;-2.518;2024-03-02T18:47:51;17.40;;;9.82;;
48859;SDS011;34679;51.436;-2.518;2024-03-02T18:50:17;28.30;;;11.15;;
48859;SDS011;34679;51.436;-2.518;2024-03-02T18:52:44;13.93;;;9.20;;
48859;SDS011;34679;51.436;-2.518;2024-03-02T18:55:09;13.13;;;8.27;;
48859;SDS011;34679;51.436;-2.518;2024-03-02T18:57:37;18.77;;;9.90;;
48859;SDS011;34679;51.436;-2.518;2024-03-02T19:00:03;13.57;;;8.05;;